Terminal Aerodrome Forecast
Issued by NWS La Crosse, WI

Home | Current Version | Previous Version | Text Only | Print | Product List | Glossary On
Versions: 1 2 3 4 5 6 7 8 9 10 11 12 13 14 15 16 17 18 19 20 21 22 23 24 25 26 27 28 29 30 31 32 33 34 35 36
000
FTUS43 KARX 261429 AAB
TAFRST
TAF AMD
KRST 261429Z 2614/2712 11008KT P6SM -SN OVC035
      TEMPO 2614/2617 1SM -SN OVC025
     FM261700 06008KT 3SM -SN OVC025
     FM262100 03008KT 2SM -SN OVC015
     FM270100 34011KT P6SM -SN OVC020
     FM270600 33012KT P6SM OVC035=

USA.gov is the U.S. government's official web portal to all federal, state and local government web resources and services.